createdAt,value
2018-04-27T00:09:10.709Z,13
2018-04-27T00:19:10.600Z,13
2018-04-27T00:29:11.758Z,13
2018-04-27T00:39:10.629Z,15
2018-04-27T00:49:10.549Z,17
2018-04-27T00:59:10.643Z,19
2018-04-27T01:09:10.579Z,19
2018-04-27T01:19:10.568Z,19
2018-04-27T01:29:10.588Z,21
2018-04-27T01:39:10.636Z,21
2018-04-27T01:49:10.664Z,21
2018-04-27T01:59:10.609Z,19
2018-04-27T02:09:10.746Z,19
2018-04-27T02:19:10.670Z,19
2018-04-27T02:29:10.635Z,19
2018-04-27T02:39:11.321Z,17
2018-04-27T02:49:10.676Z,17
2018-04-27T02:59:10.622Z,17
2018-04-27T03:09:10.680Z,17
2018-04-27T03:19:10.664Z,15
2018-04-27T03:29:10.660Z,15
2018-04-27T03:39:10.719Z,16
2018-04-27T03:49:10.810Z,16
2018-04-27T03:59:11.872Z,13
2018-04-27T04:09:10.707Z,12
2018-04-27T04:19:10.796Z,14
2018-04-27T04:29:10.815Z,13
2018-04-27T04:39:10.730Z,12
2018-04-27T04:49:10.820Z,13
2018-04-27T04:59:10.824Z,12
2018-04-27T05:09:10.839Z,13
2018-04-27T05:19:11.872Z,12
2018-04-27T05:29:10.760Z,12
2018-04-27T05:39:10.813Z,11
2018-04-27T05:49:11.882Z,11
2018-04-27T05:59:10.824Z,8
2018-04-27T06:09:10.873Z,7
2018-04-27T06:19:10.871Z,8
2018-04-27T06:29:10.854Z,8
2018-04-27T06:39:11.397Z,5
2018-04-27T06:49:10.953Z,6
2018-04-27T07:00:37.552Z,6
2018-04-27T07:10:42.295Z,5
2018-04-27T07:19:11.165Z,5
2018-04-27T07:29:11.652Z,3
2018-04-27T07:39:11.006Z,3
2018-04-27T07:49:11.050Z,3
2018-04-27T07:59:11.256Z,3
2018-04-27T08:09:11.140Z,3
2018-04-27T08:19:11.088Z,4
2018-04-27T08:29:10.906Z,2
2018-04-27T08:39:11.343Z,3
2018-04-27T08:49:11.113Z,3
2018-04-27T08:59:11.025Z,3
2018-04-27T09:09:10.905Z,2
2018-04-27T09:19:11.076Z,2
2018-04-27T09:29:11.005Z,3
2018-04-27T09:39:11.413Z,3
2018-04-27T09:49:11.289Z,2
2018-04-27T09:59:11.128Z,2
2018-04-27T10:09:10.941Z,4
2018-04-27T10:19:11.001Z,4
2018-04-27T10:29:10.877Z,4
2018-04-27T10:39:11.070Z,4
2018-04-27T10:49:11.047Z,4
2018-04-27T10:59:11.738Z,4
2018-04-27T11:09:11.432Z,3
2018-04-27T11:29:44.825Z,3
2018-04-27T11:39:12.411Z,5
2018-04-27T11:49:14.733Z,5
2018-04-27T11:59:10.989Z,4
2018-04-27T12:09:36.347Z,4
2018-04-27T12:19:10.965Z,4
2018-04-27T12:29:11.023Z,3
2018-04-27T12:39:10.915Z,3
2018-04-27T12:49:10.948Z,2
2018-04-27T12:59:38.270Z,2
2018-04-27T13:09:17.157Z,2
2018-04-27T13:19:11.076Z,2
2018-04-27T13:29:19.502Z,1
2018-04-27T13:39:11.167Z,2
2018-04-27T13:49:10.999Z,1
2018-04-27T13:59:47.073Z,2
2018-04-27T14:09:58.778Z,2
2018-04-27T14:19:59.692Z,2
2018-04-27T14:29:11.051Z,1
2018-04-27T14:39:15.819Z,1
2018-04-27T14:49:57.373Z,1
2018-04-27T14:59:10.978Z,1
2018-04-27T15:09:10.965Z,1
2018-04-27T15:19:11.083Z,1
2018-04-27T15:29:10.919Z,1
2018-04-27T15:39:23.264Z,2
2018-04-27T15:49:11.038Z,1
2018-04-27T15:59:11.613Z,2
2018-04-27T16:09:11.066Z,2
2018-04-27T16:19:10.980Z,3
2018-04-27T16:39:23.197Z,2
2018-04-27T16:49:11.023Z,2
2018-04-27T16:59:11.088Z,2
2018-04-27T17:09:11.165Z,2
2018-04-27T17:19:11.001Z,1
2018-04-27T17:29:12.150Z,2
2018-04-27T17:39:11.057Z,2
2018-04-27T17:49:11.012Z,2
2018-04-27T17:59:11.047Z,2
2018-04-27T18:09:52.225Z,2
2018-04-27T18:19:44.897Z,2
2018-04-27T18:29:11.927Z,2
2018-04-27T18:59:11.104Z,3
2018-04-27T19:09:43.728Z,2
2018-04-27T19:59:51.116Z,3
2018-04-27T20:09:11.154Z,3
2018-04-27T20:19:11.071Z,3
2018-04-27T20:39:18.349Z,2
2018-04-27T21:09:10.991Z,3
2018-04-27T21:19:11.125Z,3
2018-04-27T21:29:11.103Z,4
2018-04-27T22:09:16.550Z,3
2018-04-27T22:19:10.932Z,3
2018-04-27T22:29:11.158Z,3
2018-04-27T22:39:11.297Z,3
2018-04-27T22:49:11.193Z,3
2018-04-27T22:59:11.583Z,5
2018-04-27T23:09:11.130Z,5
2018-04-27T23:19:11.358Z,6
2018-04-27T23:29:10.948Z,5
2018-04-27T23:39:10.970Z,7
2018-04-27T23:49:10.944Z,6
2018-04-27T23:59:11.666Z,5
